sensor_id;sensor_type;location;lat;lon;timestamp;pressure;altitude;pressure_sealevel;temperature;humidity
73297;BME280;61524;50.938;11.396;2022-09-11T00:00:26;98889.75;;;10.94;100.00
73297;BME280;61524;50.938;11.396;2022-09-11T00:02:52;98901.47;;;10.88;100.00
73297;BME280;61524;50.938;11.396;2022-09-11T00:05:17;98892.81;;;10.81;100.00
73297;BME280;61524;50.938;11.396;2022-09-11T00:07:42;98893.13;;;10.85;100.00
73297;BME280;61524;50.938;11.396;2022-09-11T00:10:08;98908.03;;;10.81;100.00
73297;BME280;61524;50.938;11.396;2022-09-11T00:12:34;98915.25;;;10.80;100.00
73297;BME280;61524;50.938;11.396;2022-09-11T00:14:59;98903.22;;;10.77;100.00
73297;BME280;61524;50.938;11.396;2022-09-11T00:17:25;98909.31;;;10.73;100.00
73297;BME280;61524;50.938;11.396;2022-09-11T00:19:50;98906.84;;;10.66;100.00
73297;BME280;61524;50.938;11.396;2022-09-11T00:22:16;98914.28;;;10.64;100.00
73297;BME280;61524;50.938;11.396;2022-09-11T00:24:41;98898.75;;;10.61;100.00
73297;BME280;61524;50.938;11.396;2022-09-11T00:27:07;98902.19;;;10.57;100.00
73297;BME280;61524;50.938;11.396;2022-09-11T00:29:32;98886.22;;;10.40;100.00
73297;BME280;61524;50.938;11.396;2022-09-11T00:31:58;98906.09;;;10.49;100.00
73297;BME280;61524;50.938;11.396;2022-09-11T00:34:23;98900.44;;;10.45;100.00
73297;BME280;61524;50.938;11.396;2022-09-11T00:36:48;98904.94;;;10.40;100.00
73297;BME280;61524;50.938;11.396;2022-09-11T00:39:14;98903.81;;;10.36;100.00
73297;BME280;61524;50.938;11.396;2022-09-11T00:41:42;98905.28;;;10.27;100.00
73297;BME280;61524;50.938;11.396;2022-09-11T00:51:49;98897.25;;;10.27;100.00
73297;BME280;61524;50.938;11.396;2022-09-11T00:54:18;98901.25;;;10.24;100.00
73297;BME280;61524;50.938;11.396;2022-09-11T00:56:46;98901.81;;;10.26;100.00
73297;BME280;61524;50.938;11.396;2022-09-11T00:59:12;98898.88;;;10.28;100.00
73297;BME280;61524;50.938;11.396;2022-09-11T01:01:38;98880.44;;;10.26;100.00
73297;BME280;61524;50.938;11.396;2022-09-11T01:04:04;98893.41;;;10.17;100.00
73297;BME280;61524;50.938;11.396;2022-09-11T01:06:31;98893.63;;;10.16;100.00
73297;BME280;61524;50.938;11.396;2022-09-11T01:08:57;98898.97;;;10.16;100.00
73297;BME280;61524;50.938;11.396;2022-09-11T01:15:23;98903.22;;;10.12;100.00
73297;BME280;61524;50.938;11.396;2022-09-11T01:31:42;98899.59;;;10.40;100.00
73297;BME280;61524;50.938;11.396;2022-09-11T01:36:47;98893.25;;;10.46;100.00
73297;BME280;61524;50.938;11.396;2022-09-11T01:39:19;98896.22;;;10.49;100.00
73297;BME280;61524;50.938;11.396;2022-09-11T01:41:57;98907.78;;;10.55;100.00
73297;BME280;61524;50.938;11.396;2022-09-11T01:44:46;98900.84;;;10.59;100.00
73297;BME280;61524;50.938;11.396;2022-09-11T01:47:15;98913.47;;;10.64;100.00
73297;BME280;61524;50.938;11.396;2022-09-11T01:52:17;98911.38;;;10.66;100.00
73297;BME280;61524;50.938;11.396;2022-09-11T01:54:55;98906.78;;;10.61;100.00
73297;BME280;61524;50.938;11.396;2022-09-11T01:57:41;98918.34;;;10.67;100.00
73297;BME280;61524;50.938;11.396;2022-09-11T02:00:10;98911.44;;;10.71;100.00
73297;BME280;61524;50.938;11.396;2022-09-11T02:02:39;98911.59;;;10.64;100.00
73297;BME280;61524;50.938;11.396;2022-09-11T02:05:16;98921.75;;;10.62;100.00
73297;BME280;61524;50.938;11.396;2022-09-11T02:07:56;98911.88;;;10.63;100.00
73297;BME280;61524;50.938;11.396;2022-09-11T02:10:38;98918.00;;;10.63;100.00
73297;BME280;61524;50.938;11.396;2022-09-11T02:13:26;98909.75;;;10.65;100.00
73297;BME280;61524;50.938;11.396;2022-09-11T02:16:02;98918.00;;;10.63;100.00
73297;BME280;61524;50.938;11.396;2022-09-11T02:18:56;98921.75;;;10.62;100.00
73297;BME280;61524;50.938;11.396;2022-09-11T02:21:23;98923.34;;;10.63;100.00
73297;BME280;61524;50.938;11.396;2022-09-11T02:23:49;98923.09;;;10.65;100.00
73297;BME280;61524;50.938;11.396;2022-09-11T02:26:15;98926.34;;;10.67;100.00
73297;BME280;61524;50.938;11.396;2022-09-11T02:28:43;98928.50;;;10.70;100.00
73297;BME280;61524;50.938;11.396;2022-09-11T02:31:08;98929.81;;;10.67;100.00
73297;BME280;61524;50.938;11.396;2022-09-11T02:33:35;98917.69;;;10.60;100.00
73297;BME280;61524;50.938;11.396;2022-09-11T02:50:19;98937.63;;;10.74;100.00
73297;BME280;61524;50.938;11.396;2022-09-11T02:52:56;98939.19;;;10.70;100.00
73297;BME280;61524;50.938;11.396;2022-09-11T02:56:03;98930.88;;;10.66;100.00
73297;BME280;61524;50.938;11.396;2022-09-11T02:58:39;98952.19;;;10.61;100.00
73297;BME280;61524;50.938;11.396;2022-09-11T03:01:08;98933.97;;;10.58;100.00
73297;BME280;61524;50.938;11.396;2022-09-11T03:03:45;98943.13;;;10.62;100.00
73297;BME280;61524;50.938;11.396;2022-09-11T03:06:18;98940.72;;;10.61;100.00
73297;BME280;61524;50.938;11.396;2022-09-11T03:08:44;98945.41;;;10.54;100.00
73297;BME280;61524;50.938;11.396;2022-09-11T03:11:11;98943.53;;;10.54;100.00
73297;BME280;61524;50.938;11.396;2022-09-11T03:13:37;98948.41;;;10.57;100.00
73297;BME280;61524;50.938;11.396;2022-09-11T03:16:03;98954.00;;;10.56;100.00
73297;BME280;61524;50.938;11.396;2022-09-11T03:18:29;98953.56;;;10.64;100.00
73297;BME280;61524;50.938;11.396;2022-09-11T03:20:55;98949.28;;;10.63;100.00
73297;BME280;61524;50.938;11.396;2022-09-11T03:23:21;98951.19;;;10.67;100.00
73297;BME280;61524;50.938;11.396;2022-09-11T03:25:47;98953.63;;;10.69;100.00
73297;BME280;61524;50.938;11.396;2022-09-11T03:28:12;98954.75;;;10.73;100.00
73297;BME280;61524;50.938;11.396;2022-09-11T03:30:38;98955.13;;;10.82;100.00
73297;BME280;61524;50.938;11.396;2022-09-11T03:33:06;98956.53;;;10.89;100.00
73297;BME280;61524;50.938;11.396;2022-09-11T03:35:31;98959.75;;;10.91;100.00
73297;BME280;61524;50.938;11.396;2022-09-11T03:37:57;98956.00;;;10.92;100.00
73297;BME280;61524;50.938;11.396;2022-09-11T03:40:22;98954.47;;;10.96;100.00
73297;BME280;61524;50.938;11.396;2022-09-11T03:42:48;98963.22;;;10.92;100.00
73297;BME280;61524;50.938;11.396;2022-09-11T03:45:13;98965.94;;;10.97;100.00
73297;BME280;61524;50.938;11.396;2022-09-11T03:47:39;98961.13;;;10.94;100.00
73297;BME280;61524;50.938;11.396;2022-09-11T03:50:06;98965.94;;;10.97;100.00
73297;BME280;61524;50.938;11.396;2022-09-11T03:52:32;98958.75;;;10.97;100.00
73297;BME280;61524;50.938;11.396;2022-09-11T03:54:58;98963.84;;;10.99;100.00
73297;BME280;61524;50.938;11.396;2022-09-11T03:57:24;98973.75;;;10.98;100.00
73297;BME280;61524;50.938;11.396;2022-09-11T03:59:50;98969.19;;;10.99;100.00
73297;BME280;61524;50.938;11.396;2022-09-11T04:02:15;98975.84;;;10.96;100.00
73297;BME280;61524;50.938;11.396;2022-09-11T04:04:40;98985.25;;;10.99;100.00
73297;BME280;61524;50.938;11.396;2022-09-11T04:07:06;98996.00;;;11.04;100.00
73297;BME280;61524;50.938;11.396;2022-09-11T04:09:32;98998.72;;;11.09;100.00
73297;BME280;61524;50.938;11.396;2022-09-11T04:11:57;99000.59;;;11.09;100.00
73297;BME280;61524;50.938;11.396;2022-09-11T04:14:23;99003.81;;;11.11;100.00
73297;BME280;61524;50.938;11.396;2022-09-11T04:16:48;99008.63;;;11.14;100.00
73297;BME280;61524;50.938;11.396;2022-09-11T04:19:14;99004.94;;;11.15;100.00
73297;BME280;61524;50.938;11.396;2022-09-11T04:21:39;99014.03;;;11.19;100.00
73297;BME280;61524;50.938;11.396;2022-09-11T04:24:05;99016.22;;;11.22;100.00
73297;BME280;61524;50.938;11.396;2022-09-11T04:26:31;99006.03;;;11.19;100.00
73297;BME280;61524;50.938;11.396;2022-09-11T04:28:58;99012.22;;;11.24;100.00
73297;BME280;61524;50.938;11.396;2022-09-11T04:31:24;99012.22;;;11.24;100.00
73297;BME280;61524;50.938;11.396;2022-09-11T04:33:52;99008.75;;;11.24;100.00
73297;BME280;61524;50.938;11.396;2022-09-11T04:36:18;99017.59;;;11.24;100.00
73297;BME280;61524;50.938;11.396;2022-09-11T04:38:46;99016.78;;;11.24;100.00
73297;BME280;61524;50.938;11.396;2022-09-11T04:41:14;99012.50;;;11.23;100.00
73297;BME280;61524;50.938;11.396;2022-09-11T04:43:41;99009.53;;;11.19;100.00
73297;BME280;61524;50.938;11.396;2022-09-11T04:46:15;99019.44;;;11.24;100.00
73297;BME280;61524;50.938;11.396;2022-09-11T04:48:45;99022.44;;;11.27;100.00
73297;BME280;61524;50.938;11.396;2022-09-11T04:51:21;99031.59;;;11.32;100.00
73297;BME280;61524;50.938;11.396;2022-09-11T04:53:49;99037.47;;;11.34;100.00
73297;BME280;61524;50.938;11.396;2022-09-11T04:56:16;99036.41;;;11.35;100.00
73297;BME280;61524;50.938;11.396;2022-09-11T04:58:42;99047.50;;;11.43;100.00
73297;BME280;61524;50.938;11.396;2022-09-11T05:01:13;99061.66;;;11.44;100.00
73297;BME280;61524;50.938;11.396;2022-09-11T05:03:39;99054.72;;;11.43;100.00
73297;BME280;61524;50.938;11.396;2022-09-11T05:06:06;99068.94;;;11.48;100.00
73297;BME280;61524;50.938;11.396;2022-09-11T05:08:32;99058.25;;;11.48;100.00
73297;BME280;61524;50.938;11.396;2022-09-11T05:10:59;99079.69;;;11.53;100.00
73297;BME280;61524;50.938;11.396;2022-09-11T05:13:26;99067.63;;;11.51;100.00
73297;BME280;61524;50.938;11.396;2022-09-11T05:15:51;99075.41;;;11.52;100.00
73297;BME280;61524;50.938;11.396;2022-09-11T05:18:17;99069.59;;;11.61;100.00
73297;BME280;61524;50.938;11.396;2022-09-11T05:20:43;99082.28;;;11.70;100.00
73297;BME280;61524;50.938;11.396;2022-09-11T05:23:11;99078.09;;;11.79;100.00
73297;BME280;61524;50.938;11.396;2022-09-11T05:25:36;99082.72;;;11.84;100.00
73297;BME280;61524;50.938;11.396;2022-09-11T05:28:03;99085.69;;;11.88;100.00
73297;BME280;61524;50.938;11.396;2022-09-11T05:30:29;99086.25;;;11.90;100.00
73297;BME280;61524;50.938;11.396;2022-09-11T05:32:55;99088.16;;;11.94;100.00
73297;BME280;61524;50.938;11.396;2022-09-11T05:35:22;99098.09;;;11.99;100.00
73297;BME280;61524;50.938;11.396;2022-09-11T05:37:49;99096.22;;;11.99;100.00
73297;BME280;61524;50.938;11.396;2022-09-11T05:40:14;99106.56;;;12.18;100.00
73297;BME280;61524;50.938;11.396;2022-09-11T05:42:40;99113.03;;;12.22;100.00
73297;BME280;61524;50.938;11.396;2022-09-11T05:45:06;99121.34;;;12.25;100.00
73297;BME280;61524;50.938;11.396;2022-09-11T05:47:31;99113.09;;;12.32;100.00
73297;BME280;61524;50.938;11.396;2022-09-11T05:49:58;99092.31;;;12.44;100.00
73297;BME280;61524;50.938;11.396;2022-09-11T05:52:23;99091.06;;;12.57;100.00
73297;BME280;61524;50.938;11.396;2022-09-11T05:54:49;99074.66;;;12.53;100.00
73297;BME280;61524;50.938;11.396;2022-09-11T05:57:14;99065.91;;;12.63;100.00
73297;BME280;61524;50.938;11.396;2022-09-11T05:59:40;99070.22;;;12.69;100.00
73297;BME280;61524;50.938;11.396;2022-09-11T06:02:05;99076.16;;;12.76;100.00
73297;BME280;61524;50.938;11.396;2022-09-11T06:04:31;99077.53;;;12.84;100.00
73297;BME280;61524;50.938;11.396;2022-09-11T06:06:56;99089.63;;;12.86;100.00
73297;BME280;61524;50.938;11.396;2022-09-11T06:09:21;99088.31;;;12.94;100.00
73297;BME280;61524;50.938;11.396;2022-09-11T06:11:47;99093.19;;;12.97;100.00
73297;BME280;61524;50.938;11.396;2022-09-11T06:14:12;99091.88;;;13.05;100.00
73297;BME280;61524;50.938;11.396;2022-09-11T06:16:38;99092.41;;;13.12;100.00
73297;BME280;61524;50.938;11.396;2022-09-11T06:19:04;99100.50;;;13.17;100.00
73297;BME280;61524;50.938;11.396;2022-09-11T06:21:30;99100.31;;;13.24;100.00
73297;BME280;61524;50.938;11.396;2022-09-11T06:23:56;99100.28;;;13.29;100.00
73297;BME280;61524;50.938;11.396;2022-09-11T06:26:24;99103.56;;;13.36;100.00
73297;BME280;61524;50.938;11.396;2022-09-11T06:28:50;99094.16;;;13.38;100.00
73297;BME280;61524;50.938;11.396;2022-09-11T06:31:18;99102.28;;;13.54;100.00
73297;BME280;61524;50.938;11.396;2022-09-11T06:33:45;99115.19;;;13.57;100.00
73297;BME280;61524;50.938;11.396;2022-09-11T06:36:13;99102.28;;;13.59;100.00
73297;BME280;61524;50.938;11.396;2022-09-11T06:38:40;99107.16;;;13.67;100.00
73297;BME280;61524;50.938;11.396;2022-09-11T06:41:07;99116.84;;;13.78;100.00
73297;BME280;61524;50.938;11.396;2022-09-11T06:43:36;99103.69;;;13.87;100.00
73297;BME280;61524;50.938;11.396;2022-09-11T06:46:11;99110.41;;;13.84;100.00
73297;BME280;61524;50.938;11.396;2022-09-11T06:48:44;99106.66;;;13.85;100.00
73297;BME280;61524;50.938;11.396;2022-09-11T06:51:12;99109.84;;;13.87;100.00
73297;BME280;61524;50.938;11.396;2022-09-11T06:53:38;99112.31;;;13.89;100.00
73297;BME280;61524;50.938;11.396;2022-09-11T06:56:06;99115.78;;;13.79;100.00
73297;BME280;61524;50.938;11.396;2022-09-11T06:58:32;99110.91;;;13.71;100.00
73297;BME280;61524;50.938;11.396;2022-09-11T07:01:05;99115.75;;;13.69;100.00
73297;BME280;61524;50.938;11.396;2022-09-11T07:03:31;99128.38;;;13.69;100.00
73297;BME280;61524;50.938;11.396;2022-09-11T07:05:57;99125.94;;;13.62;100.00
73297;BME280;61524;50.938;11.396;2022-09-11T07:08:23;99137.19;;;13.59;100.00
73297;BME280;61524;50.938;11.396;2022-09-11T07:10:48;99127.53;;;13.58;100.00
73297;BME280;61524;50.938;11.396;2022-09-11T07:13:14;99131.00;;;13.58;100.00
73297;BME280;61524;50.938;11.396;2022-09-11T07:15:39;99127.25;;;13.59;100.00
73297;BME280;61524;50.938;11.396;2022-09-11T07:18:05;99136.13;;;13.65;100.00
73297;BME280;61524;50.938;11.396;2022-09-11T07:20:31;99142.59;;;13.74;100.00
73297;BME280;61524;50.938;11.396;2022-09-11T07:22:56;99147.19;;;13.79;100.00
73297;BME280;61524;50.938;11.396;2022-09-11T07:25:23;99145.03;;;13.86;100.00
73297;BME280;61524;50.938;11.396;2022-09-11T07:27:48;99133.53;;;13.96;100.00
73297;BME280;61524;50.938;11.396;2022-09-11T07:30:16;99143.75;;;14.19;100.00
73297;BME280;61524;50.938;11.396;2022-09-11T07:32:41;99147.25;;;14.40;100.00
73297;BME280;61524;50.938;11.396;2022-09-11T07:35:07;99153.72;;;14.44;100.00
73297;BME280;61524;50.938;11.396;2022-09-11T07:37:32;99145.13;;;14.62;100.00
73297;BME280;61524;50.938;11.396;2022-09-11T07:39:58;99159.13;;;14.69;100.00
73297;BME280;61524;50.938;11.396;2022-09-11T07:42:24;99158.28;;;14.79;100.00
73297;BME280;61524;50.938;11.396;2022-09-11T07:44:49;99155.06;;;14.67;100.00
73297;BME280;61524;50.938;11.396;2022-09-11T07:47:15;99162.34;;;14.56;100.00
73297;BME280;61524;50.938;11.396;2022-09-11T07:49:40;99159.94;;;14.55;100.00
73297;BME280;61524;50.938;11.396;2022-09-11T07:52:06;99167.19;;;14.49;100.00
73297;BME280;61524;50.938;11.396;2022-09-11T07:54:31;99163.44;;;14.65;100.00
73297;BME280;61524;50.938;11.396;2022-09-11T07:56:57;99162.03;;;14.88;100.00
73297;BME280;61524;50.938;11.396;2022-09-11T07:59:23;99158.25;;;15.00;100.00
73297;BME280;61524;50.938;11.396;2022-09-11T08:01:48;99159.28;;;15.29;99.61
73297;BME280;61524;50.938;11.396;2022-09-11T08:04:14;99163.88;;;15.23;99.09
73297;BME280;61524;50.938;11.396;2022-09-11T08:06:41;99172.06;;;15.58;97.66
73297;BME280;61524;50.938;11.396;2022-09-11T08:09:09;99167.47;;;15.73;97.60
73297;BME280;61524;50.938;11.396;2022-09-11T08:11:40;99181.91;;;15.93;96.35
73297;BME280;61524;50.938;11.396;2022-09-11T08:14:07;99181.97;;;15.83;96.20
73297;BME280;61524;50.938;11.396;2022-09-11T08:16:34;99184.63;;;15.88;94.98
73297;BME280;61524;50.938;11.396;2022-09-11T08:19:03;99181.59;;;15.99;94.60
73297;BME280;61524;50.938;11.396;2022-09-11T08:21:29;99192.31;;;16.10;93.76
73297;BME280;61524;50.938;11.396;2022-09-11T08:23:55;99196.91;;;16.09;93.59
73297;BME280;61524;50.938;11.396;2022-09-11T08:26:28;99183.28;;;15.85;94.85
73297;BME280;61524;50.938;11.396;2022-09-11T08:28:55;99180.84;;;15.89;94.93
73297;BME280;61524;50.938;11.396;2022-09-11T08:31:23;99204.44;;;16.07;94.51
73297;BME280;61524;50.938;11.396;2022-09-11T08:33:52;99205.25;;;16.08;94.15
73297;BME280;61524;50.938;11.396;2022-09-11T08:36:18;99201.22;;;16.10;93.48
73297;BME280;61524;50.938;11.396;2022-09-11T08:38:44;99207.63;;;16.14;92.88
73297;BME280;61524;50.938;11.396;2022-09-11T08:43:47;99218.22;;;16.06;93.17
73297;BME280;61524;50.938;11.396;2022-09-11T08:46:16;99209.47;;;15.74;93.63
73297;BME280;61524;50.938;11.396;2022-09-11T08:49:05;99203.88;;;15.66;94.60
73297;BME280;61524;50.938;11.396;2022-09-11T08:51:34;99213.31;;;15.48;95.14
73297;BME280;61524;50.938;11.396;2022-09-11T08:54:01;99212.22;;;15.44;95.25
73297;BME280;61524;50.938;11.396;2022-09-11T08:56:30;99213.84;;;15.55;95.38
73297;BME280;61524;50.938;11.396;2022-09-11T09:04:54;99223.91;;;15.99;93.85
73297;BME280;61524;50.938;11.396;2022-09-11T09:07:39;99215.41;;;16.26;92.98
73297;BME280;61524;50.938;11.396;2022-09-11T09:18:35;99221.34;;;16.23;90.42
73297;BME280;61524;50.938;11.396;2022-09-11T09:21:12;99214.91;;;16.19;90.77
73297;BME280;61524;50.938;11.396;2022-09-11T09:23:51;99228.03;;;16.75;89.48
73297;BME280;61524;50.938;11.396;2022-09-11T09:26:18;99225.50;;;17.18;87.67
73297;BME280;61524;50.938;11.396;2022-09-11T09:28:50;99224.75;;;17.12;84.07
73297;BME280;61524;50.938;11.396;2022-09-11T09:31:19;99219.19;;;16.64;83.88
73297;BME280;61524;50.938;11.396;2022-09-11T09:33:59;99223.03;;;16.53;85.15
73297;BME280;61524;50.938;11.396;2022-09-11T09:37:19;99227.75;;;16.76;85.87
73297;BME280;61524;50.938;11.396;2022-09-11T09:39:44;99222.56;;;16.85;86.61
73297;BME280;61524;50.938;11.396;2022-09-11T09:47:42;99223.16;;;17.83;82.42
73297;BME280;61524;50.938;11.396;2022-09-11T09:50:19;99219.13;;;17.56;82.83
73297;BME280;61524;50.938;11.396;2022-09-11T09:52:48;99223.09;;;17.11;84.54
73297;BME280;61524;50.938;11.396;2022-09-11T09:55:16;99226.19;;;16.99;85.64
73297;BME280;61524;50.938;11.396;2022-09-11T09:57:42;99227.53;;;17.02;85.64
73297;BME280;61524;50.938;11.396;2022-09-11T10:08:03;99234.41;;;17.90;83.70
73297;BME280;61524;50.938;11.396;2022-09-11T10:10:35;99234.53;;;17.56;81.58
73297;BME280;61524;50.938;11.396;2022-09-11T10:13:13;99239.22;;;17.69;81.91
73297;BME280;61524;50.938;11.396;2022-09-11T10:15:43;99232.56;;;17.86;81.79
73297;BME280;61524;50.938;11.396;2022-09-11T10:18:22;99227.28;;;18.18;80.14
73297;BME280;61524;50.938;11.396;2022-09-11T10:20:48;99233.22;;;18.20;80.87
73297;BME280;61524;50.938;11.396;2022-09-11T10:23:24;99229.41;;;18.21;78.53
73297;BME280;61524;50.938;11.396;2022-09-11T10:25:50;99231.63;;;18.19;79.84
73297;BME280;61524;50.938;11.396;2022-09-11T10:28:21;99233.13;;;18.06;79.13
73297;BME280;61524;50.938;11.396;2022-09-11T10:30:56;99240.31;;;17.73;81.93
73297;BME280;61524;50.938;11.396;2022-09-11T10:33:29;99241.91;;;17.50;81.79
73297;BME280;61524;50.938;11.396;2022-09-11T10:35:56;99242.97;;;17.25;82.70
73297;BME280;61524;50.938;11.396;2022-09-11T10:43:51;99257.34;;;17.16;86.19
73297;BME280;61524;50.938;11.396;2022-09-11T10:48:42;99255.19;;;17.18;84.47
73297;BME280;61524;50.938;11.396;2022-09-11T10:51:09;99252.81;;;17.40;84.57
73297;BME280;61524;50.938;11.396;2022-09-11T10:53:57;99253.94;;;17.34;85.48
73297;BME280;61524;50.938;11.396;2022-09-11T10:56:24;99246.25;;;17.46;86.27
73297;BME280;61524;50.938;11.396;2022-09-11T10:58:53;99240.28;;;17.49;85.35
73297;BME280;61524;50.938;11.396;2022-09-11T11:01:22;99250.63;;;17.42;85.08
73297;BME280;61524;50.938;11.396;2022-09-11T11:03:48;99257.41;;;17.40;82.75
73297;BME280;61524;50.938;11.396;2022-09-11T11:07:12;99242.00;;;17.40;82.20
73297;BME280;61524;50.938;11.396;2022-09-11T11:23:04;99248.78;;;17.86;80.46
73297;BME280;61524;50.938;11.396;2022-09-11T11:28:06;99261.16;;;17.68;83.05
73297;BME280;61524;50.938;11.396;2022-09-11T11:38:40;99280.41;;;16.69;89.90
73297;BME280;61524;50.938;11.396;2022-09-11T11:41:18;99279.53;;;16.34;90.64
73297;BME280;61524;50.938;11.396;2022-09-11T11:43:46;99278.59;;;16.10;93.15
73297;BME280;61524;50.938;11.396;2022-09-11T11:51:25;99308.91;;;15.56;97.78
73297;BME280;61524;50.938;11.396;2022-09-11T11:54:07;99296.78;;;15.43;98.01
73297;BME280;61524;50.938;11.396;2022-09-11T11:56:56;99302.97;;;15.48;99.24
73297;BME280;61524;50.938;11.396;2022-09-11T11:59:30;99303.53;;;15.51;99.34
73297;BME280;61524;50.938;11.396;2022-09-11T12:07:28;99308.13;;;15.45;100.00
73297;BME280;61524;50.938;11.396;2022-09-11T12:09:56;99302.44;;;15.57;100.00
73297;BME280;61524;50.938;11.396;2022-09-11T12:12:29;99299.75;;;15.72;100.00
73297;BME280;61524;50.938;11.396;2022-09-11T12:15:02;99305.31;;;15.91;100.00
73297;BME280;61524;50.938;11.396;2022-09-11T12:17:31;99300.72;;;15.96;99.02
73297;BME280;61524;50.938;11.396;2022-09-11T12:32:44;99307.50;;;15.89;100.00
73297;BME280;61524;50.938;11.396;2022-09-11T12:38:01;99298.56;;;16.04;100.00
73297;BME280;61524;50.938;11.396;2022-09-11T12:45:41;99301.56;;;15.87;100.00
73297;BME280;61524;50.938;11.396;2022-09-11T12:48:13;99300.75;;;15.91;100.00
73297;BME280;61524;50.938;11.396;2022-09-11T12:50:48;99311.84;;;15.80;100.00
73297;BME280;61524;50.938;11.396;2022-09-11T12:53:17;99305.41;;;15.50;100.00
73297;BME280;61524;50.938;11.396;2022-09-11T12:55:59;99309.22;;;15.34;100.00
73297;BME280;61524;50.938;11.396;2022-09-11T13:06:58;99309.16;;;15.59;100.00
73297;BME280;61524;50.938;11.396;2022-09-11T13:09:45;99312.66;;;15.60;100.00
73297;BME280;61524;50.938;11.396;2022-09-11T13:14:54;99318.31;;;15.53;100.00
73297;BME280;61524;50.938;11.396;2022-09-11T13:22:35;99321.50;;;15.86;100.00
73297;BME280;61524;50.938;11.396;2022-09-11T13:25:11;99307.19;;;16.00;100.00
73297;BME280;61524;50.938;11.396;2022-09-11T13:27:40;99295.06;;;15.98;100.00
73297;BME280;61524;50.938;11.396;2022-09-11T13:30:07;99304.97;;;16.13;100.00
73297;BME280;61524;50.938;11.396;2022-09-11T13:32:33;99290.94;;;16.21;100.00
73297;BME280;61524;50.938;11.396;2022-09-11T13:35:05;99294.91;;;16.34;100.00
73297;BME280;61524;50.938;11.396;2022-09-11T13:38:06;99299.47;;;16.38;100.00
73297;BME280;61524;50.938;11.396;2022-09-11T13:40:44;99288.34;;;16.50;100.00
73297;BME280;61524;50.938;11.396;2022-09-11T13:43:20;99303.06;;;16.63;100.00
73297;BME280;61524;50.938;11.396;2022-09-11T13:45:47;99296.56;;;16.79;99.28
73297;BME280;61524;50.938;11.396;2022-09-11T13:48:20;99304.69;;;16.69;98.13
73297;BME280;61524;50.938;11.396;2022-09-11T13:50:47;99297.56;;;16.39;98.78
73297;BME280;61524;50.938;11.396;2022-09-11T13:53:14;99300.88;;;16.31;100.00
73297;BME280;61524;50.938;11.396;2022-09-11T13:55:44;99291.38;;;15.73;98.28
73297;BME280;61524;50.938;11.396;2022-09-11T13:58:43;99315.13;;;15.26;98.50
73297;BME280;61524;50.938;11.396;2022-09-11T14:01:12;99323.47;;;14.93;100.00
73297;BME280;61524;50.938;11.396;2022-09-11T14:03:44;99311.59;;;14.74;100.00
73297;BME280;61524;50.938;11.396;2022-09-11T14:06:15;99322.63;;;14.67;100.00
73297;BME280;61524;50.938;11.396;2022-09-11T14:08:47;99323.19;;;14.69;100.00
73297;BME280;61524;50.938;11.396;2022-09-11T14:11:26;99316.72;;;14.70;100.00
73297;BME280;61524;50.938;11.396;2022-09-11T14:13:59;99315.13;;;14.69;100.00
73297;BME280;61524;50.938;11.396;2022-09-11T14:16:32;99331.50;;;14.78;100.00
73297;BME280;61524;50.938;11.396;2022-09-11T14:21:34;99337.16;;;14.72;100.00
73297;BME280;61524;50.938;11.396;2022-09-11T14:24:00;99338.50;;;14.64;100.00
73297;BME280;61524;50.938;11.396;2022-09-11T14:29:05;99338.50;;;14.59;100.00
73297;BME280;61524;50.938;11.396;2022-09-11T14:31:39;99335.25;;;14.62;100.00
73297;BME280;61524;50.938;11.396;2022-09-11T14:36:37;99349.25;;;14.79;100.00
73297;BME280;61524;50.938;11.396;2022-09-11T14:39:04;99348.47;;;14.79;100.00
73297;BME280;61524;50.938;11.396;2022-09-11T14:41:30;99340.41;;;14.84;100.00
73297;BME280;61524;50.938;11.396;2022-09-11T14:43:56;99343.09;;;14.94;100.00
73297;BME280;61524;50.938;11.396;2022-09-11T14:46:21;99354.97;;;15.08;100.00
73297;BME280;61524;50.938;11.396;2022-09-11T14:48:46;99342.59;;;15.07;100.00
73297;BME280;61524;50.938;11.396;2022-09-11T14:51:12;99349.31;;;15.15;100.00
73297;BME280;61524;50.938;11.396;2022-09-11T14:53:38;99349.31;;;15.35;100.00
73297;BME280;61524;50.938;11.396;2022-09-11T14:56:03;99333.69;;;15.32;100.00
73297;BME280;61524;50.938;11.396;2022-09-11T14:58:29;99339.06;;;15.32;100.00
73297;BME280;61524;50.938;11.396;2022-09-11T15:00:56;99337.47;;;15.31;100.00
73297;BME280;61524;50.938;11.396;2022-09-11T15:03:22;99324.81;;;15.27;100.00
73297;BME280;61524;50.938;11.396;2022-09-11T15:05:55;99324.00;;;15.26;100.00
73297;BME280;61524;50.938;11.396;2022-09-11T15:08:21;99322.13;;;15.32;100.00
73297;BME280;61524;50.938;11.396;2022-09-11T15:10:47;99318.63;;;15.41;100.00
73297;BME280;61524;50.938;11.396;2022-09-11T15:13:13;99301.66;;;15.15;100.00
73297;BME280;61524;50.938;11.396;2022-09-11T15:15:39;99316.50;;;15.13;100.00
73297;BME280;61524;50.938;11.396;2022-09-11T15:18:06;99312.72;;;15.04;100.00
73297;BME280;61524;50.938;11.396;2022-09-11T15:20:31;99320.22;;;15.17;100.00
73297;BME280;61524;50.938;11.396;2022-09-11T15:22:57;99318.63;;;15.16;100.00
73297;BME280;61524;50.938;11.396;2022-09-11T15:25:22;99314.31;;;15.15;100.00
73297;BME280;61524;50.938;11.396;2022-09-11T15:27:49;99315.13;;;15.15;100.00
73297;BME280;61524;50.938;11.396;2022-09-11T15:30:17;99305.44;;;15.09;100.00
73297;BME280;61524;50.938;11.396;2022-09-11T15:32:42;99315.69;;;15.12;100.00
73297;BME280;61524;50.938;11.396;2022-09-11T15:35:09;99317.53;;;15.12;100.00